Tampa, Florida
Traffic Map
Current Weather Conditions
Tampa, Florida
Few Clouds
Few Clouds
29°
Feels Like: 31°
Wind Chill: 29° Ceiling: Unl
Heat Index: 31° Visibility: 10mi
Dew Point: 19° Wind: 9mph
Humidity: 53% Direction: 320° (NW)
Pressure: 29.98in Gusts: 0mph
Raw Report DataKTPA 312353Z 32008KT 10SM FEW045 FEW250 29/19 A2998 RMK AO2 SLP153 T02940189 10322 20294 53008
Traffic Incident Summary
Active as of:
Severity:
Category:
InformationThere was an issue retrieving the traffic information for this location. Please try a different location or try again shortly.
Advertisements
Track Severe Weather on mobile